Time;durP1;ratioP1;P1;durP2;ratioP2;P2;SDS_P1;SDS_P2;PMS_P1;PMS_P2;Temp;Humidity;BMP_temperature;BMP_pressure;BME280_temperature;BME280_humidity;BME280_pressure;Samples;Min_cycle;Max_cycle;Signal;HPM_P1;HPM_P2
2023/10/17 00:01:00;;;;;;;4.40;1.80;;;;;;;;;;4989055;28;90151;-76
2023/10/17 00:03:26;;;;;;;4.35;1.80;;;;;;;;;;4973689;28;88014;-76
2023/10/17 00:05:56;;;;;;;4.13;1.80;;;;;;;;;;4974484;28;88778;-76
2023/10/17 00:08:22;;;;;;;5.25;1.85;;;;;;;;;;4973769;28;87335;-76
2023/10/17 00:10:49;;;;;;;5.20;1.83;;;;;;;;;;4972955;28;89708;-76
2023/10/17 00:13:31;;;;;;;4.30;1.60;;;;;;;;;;4974319;28;89931;-76
2023/10/17 00:15:59;;;;;;;5.13;1.92;;;;;;;;;;4976520;28;88793;-76
2023/10/17 00:18:26;;;;;;;5.05;1.90;;;;;;;;;;4977717;28;93459;-76
2023/10/17 00:20:53;;;;;;;5.95;1.92;;;;;;;;;;4974460;28;88426;-76
2023/10/17 00:23:24;;;;;;;5.85;1.90;;;;;;;;;;4989130;28;88990;-76
2023/10/17 00:25:51;;;;;;;3.53;1.55;;;;;;;;;;4973508;28;88727;-76
2023/10/17 00:28:20;;;;;;;4.05;1.63;;;;;;;;;;4972977;28;88244;-76
2023/10/17 00:30:48;;;;;;;4.13;1.83;;;;;;;;;;4970317;28;88442;-76
2023/10/17 00:33:20;;;;;;;5.80;2.10;;;;;;;;;;4974618;28;88655;-76
2023/10/17 00:35:47;;;;;;;5.07;1.90;;;;;;;;;;4971788;28;88663;-76
2023/10/17 00:38:15;;;;;;;4.63;1.98;;;;;;;;;;4976162;28;88346;-76
2023/10/17 00:40:51;;;;;;;3.92;1.80;;;;;;;;;;4975305;28;89075;-76
2023/10/17 00:43:17;;;;;;;5.65;1.85;;;;;;;;;;4974123;28;89555;-77
2023/10/17 00:45:47;;;;;;;4.57;1.58;;;;;;;;;;4973003;28;88642;-76
2023/10/17 00:48:25;;;;;;;6.10;1.90;;;;;;;;;;4972891;28;88647;-76
2023/10/17 00:50:57;;;;;;;5.22;1.83;;;;;;;;;;4972013;28;89510;-76
2023/10/17 00:53:24;;;;;;;3.33;1.63;;;;;;;;;;4973159;28;88817;-76
2023/10/17 00:55:51;;;;;;;4.55;1.80;;;;;;;;;;4972902;28;88070;-76
2023/10/17 00:58:24;;;;;;;4.97;1.90;;;;;;;;;;4971017;28;90962;-76
2023/10/17 01:00:58;;;;;;;4.95;1.92;;;;;;;;;;4974485;28;89087;-76
2023/10/17 01:03:29;;;;;;;4.57;1.90;;;;;;;;;;4972657;28;88247;-76
2023/10/17 01:06:13;;;;;;;6.07;1.90;;;;;;;;;;4970709;28;92583;-76
2023/10/17 01:08:46;;;;;;;7.88;1.90;;;;;;;;;;4972638;28;91654;-75
2023/10/17 01:11:27;;;;;;;6.10;1.90;;;;;;;;;;4971553;28;88397;-75
2023/10/17 01:13:54;;;;;;;4.85;1.80;;;;;;;;;;4970138;28;91501;-75
2023/10/17 01:16:22;;;;;;;5.22;1.88;;;;;;;;;;4970340;28;88773;-75
2023/10/17 01:18:48;;;;;;;;;;;;;;;;;;4977694;28;88355;-75
2023/10/17 01:21:18;;;;;;;7.78;1.92;;;;;;;;;;4973670;28;88632;-75
2023/10/17 01:23:45;;;;;;;4.55;1.60;;;;;;;;;;4974446;28;87802;-75
2023/10/17 01:26:14;;;;;;;5.85;1.70;;;;;;;;;;4971244;28;89099;-75
2023/10/17 01:28:45;;;;;;;4.30;1.73;;;;;;;;;;4969890;28;88024;-75
2023/10/17 01:31:14;;;;;;;6.90;1.70;;;;;;;;;;4973848;28;89674;-75
2023/10/17 01:33:43;;;;;;;5.97;1.80;;;;;;;;;;4972731;28;89000;-75
2023/10/17 01:36:10;;;;;;;6.97;1.80;;;;;;;;;;4971301;28;88119;-75
2023/10/17 01:38:38;;;;;;;5.13;1.90;;;;;;;;;;4972831;28;89594;-75
2023/10/17 01:41:05;;;;;;;;;;;;;;;;;;4971030;28;91497;-75
2023/10/17 01:43:36;;;;;;;4.85;2.10;;;;;;;;;;4973762;28;101771;-76
2023/10/17 01:46:05;;;;;;;4.18;1.73;;;;;;;;;;4974658;28;88370;-76
2023/10/17 01:48:32;;;;;;;4.25;1.60;;;;;;;;;;4970612;28;91025;-77
2023/10/17 01:51:05;;;;;;;8.30;2.00;;;;;;;;;;4970290;28;90704;-76
2023/10/17 01:53:33;;;;;;;4.63;1.75;;;;;;;;;;4972345;28;89123;-76
2023/10/17 01:56:06;;;;;;;3.97;1.70;;;;;;;;;;4970748;28;88676;-76
2023/10/17 01:58:37;;;;;;;5.30;1.92;;;;;;;;;;4970566;28;91637;-76
2023/10/17 02:01:10;;;;;;;8.13;1.90;;;;;;;;;;4972286;28;88702;-76
2023/10/17 02:03:39;;;;;;;6.80;1.80;;;;;;;;;;4970471;28;88760;-76
2023/10/17 02:06:14;;;;;;;5.68;1.80;;;;;;;;;;4971247;28;88362;-77
2023/10/17 02:08:44;;;;;;;6.95;2.00;;;;;;;;;;4974379;28;88252;-76
2023/10/17 02:11:23;;;;;;;6.50;2.05;;;;;;;;;;4970503;28;88793;-77
2023/10/17 02:13:50;;;;;;;5.07;1.67;;;;;;;;;;4971327;28;89455;-76
2023/10/17 02:16:17;;;;;;;4.93;1.80;;;;;;;;;;4970987;28;88510;-76
2023/10/17 02:18:45;;;;;;;4.25;1.73;;;;;;;;;;4974834;28;89398;-76
2023/10/17 02:21:12;;;;;;;5.22;1.90;;;;;;;;;;4971424;28;89371;-77
2023/10/17 02:23:40;;;;;;;7.53;2.15;;;;;;;;;;4986570;28;90089;-76
2023/10/17 02:26:10;;;;;;;5.00;1.70;;;;;;;;;;4986184;28;88868;-76
2023/10/17 02:28:46;;;;;;;5.70;1.88;;;;;;;;;;4972741;28;89211;-76
2023/10/17 02:31:14;;;;;;;5.43;2.03;;;;;;;;;;4962157;28;88453;-76
2023/10/17 02:33:43;;;;;;;5.05;1.83;;;;;;;;;;4971659;28;88668;-76
2023/10/17 02:36:12;;;;;;;5.13;1.73;;;;;;;;;;4970553;28;88118;-76
2023/10/17 02:38:40;;;;;;;6.53;2.10;;;;;;;;;;4970021;28;90835;-76
2023/10/17 02:41:09;;;;;;;6.22;1.80;;;;;;;;;;4971310;28;89254;-76
2023/10/17 02:43:40;;;;;;;5.10;1.80;;;;;;;;;;4970287;28;90068;-76
2023/10/17 02:46:07;;;;;;;5.45;2.00;;;;;;;;;;4969868;28;89106;-76
2023/10/17 02:48:38;;;;;;;5.28;1.77;;;;;;;;;;4975813;28;88819;-76
2023/10/17 02:51:11;;;;;;;5.00;1.80;;;;;;;;;;4985798;28;90473;-76
2023/10/17 02:53:43;;;;;;;5.30;1.77;;;;;;;;;;4964458;28;90133;-76
2023/10/17 02:56:18;;;;;;;5.45;2.00;;;;;;;;;;4971930;28;88031;-76
2023/10/17 02:58:59;;;;;;;4.43;1.80;;;;;;;;;;4973751;28;89064;-77
2023/10/17 03:01:27;;;;;;;7.18;2.00;;;;;;;;;;4971189;28;88471;-76
2023/10/17 03:03:54;;;;;;;4.85;1.80;;;;;;;;;;4971924;28;88415;-76
2023/10/17 03:06:20;;;;;;;3.65;1.80;;;;;;;;;;4969399;28;88693;-76
2023/10/17 03:09:00;;;;;;;5.07;1.80;;;;;;;;;;4970072;28;88879;-76
2023/10/17 03:11:36;;;;;;;5.20;2.00;;;;;;;;;;4956903;28;90900;-76
2023/10/17 03:16:55;;;;;;;11.15;1.80;;;;;;;;;;4971515;28;88267;-76
2023/10/17 03:19:26;;;;;;;5.38;1.88;;;;;;;;;;4979616;28;88420;-76
2023/10/17 03:21:55;;;;;;;6.22;1.75;;;;;;;;;;4973415;28;90035;-76
2023/10/17 03:24:38;;;;;;;4.28;1.73;;;;;;;;;;4972002;28;89888;-77
2023/10/17 03:27:07;;;;;;;5.07;1.73;;;;;;;;;;4972585;28;91063;-76
2023/10/17 03:29:34;;;;;;;4.90;1.83;;;;;;;;;;4966808;28;87833;-76
2023/10/17 03:32:04;;;;;;;4.68;1.75;;;;;;;;;;4972020;28;89783;-76
2023/10/17 03:34:35;;;;;;;6.03;1.90;;;;;;;;;;4976237;28;91903;-76
2023/10/17 03:37:26;;;;;;;5.85;1.95;;;;;;;;;;4974944;28;91806;-77
2023/10/17 03:40:18;;;;;;;5.20;1.70;;;;;;;;;;4972424;28;90280;-77
2023/10/17 03:42:54;;;;;;;5.00;1.85;;;;;;;;;;4973900;28;93260;-76
2023/10/17 03:47:54;;;;;;;4.40;1.58;;;;;;;;;;4972000;28;91862;-76
2023/10/17 03:50:42;;;;;;;5.90;1.77;;;;;;;;;;4972007;28;88891;-77
2023/10/17 03:53:25;;;;;;;3.20;1.63;;;;;;;;;;4952562;28;90428;-76
2023/10/17 03:55:51;;;;;;;5.05;1.83;;;;;;;;;;4972836;28;88198;-76
2023/10/17 04:00:52;;;;;;;4.53;1.70;;;;;;;;;;4963757;28;88130;-76
2023/10/17 04:03:25;;;;;;;5.70;1.90;;;;;;;;;;4966449;28;89964;-76
2023/10/17 04:06:01;;;;;;;4.43;1.70;;;;;;;;;;4983924;28;87934;-76
2023/10/17 04:08:37;;;;;;;4.93;1.70;;;;;;;;;;4973789;28;92752;-76
2023/10/17 04:11:49;;;;;;;6.72;1.95;;;;;;;;;;4988259;28;90947;-76
2023/10/17 04:14:00;;;;;;;4.93;1.83;;;;;;;;;;4971597;28;90711;-76
2023/10/17 04:16:34;;;;;;;4.43;1.65;;;;;;;;;;4971464;28;91444;-76
2023/10/17 04:19:01;;;;;;;4.32;1.70;;;;;;;;;;4973408;28;88467;-77
2023/10/17 04:21:45;;;;;;;3.95;1.42;;;;;;;;;;4974820;28;87439;-76
2023/10/17 04:24:18;;;;;;;5.03;1.67;;;;;;;;;;4974205;28;88132;-76
2023/10/17 04:26:45;;;;;;;7.18;1.92;;;;;;;;;;4973688;28;87962;-76
2023/10/17 04:29:12;;;;;;;5.75;1.70;;;;;;;;;;4968194;28;89050;-76
2023/10/17 04:31:39;;;;;;;6.53;1.77;;;;;;;;;;4972472;28;89547;-75
2023/10/17 04:34:14;;;;;;;6.05;1.60;;;;;;;;;;4972614;28;88082;-75
2023/10/17 04:36:41;;;;;;;4.03;1.50;;;;;;;;;;4973698;28;88877;-75
2023/10/17 04:44:23;;;;;;;6.18;1.77;;;;;;;;;;4975701;28;88872;-75
2023/10/17 04:47:38;;;;;;;5.25;1.67;;;;;;;;;;4972287;28;87997;-75
2023/10/17 04:49:36;;;;;;;4.93;1.73;;;;;;;;;;4972349;28;89465;-75
2023/10/17 04:52:09;;;;;;;3.78;1.58;;;;;;;;;;4972324;28;89276;-74
2023/10/17 04:57:04;;;;;;;;;;;;;;;;;;4973516;28;88717;-75
2023/10/17 06:17:28;;;;;;;4.97;1.90;;;;;;;;;;4968811;28;89193;-77
2023/10/17 06:19:58;;;;;;;5.40;1.80;;;;;;;;;;4949883;28;89254;-76
2023/10/17 06:30:28;;;;;;;6.93;1.92;;;;;;;;;;4966228;28;88168;-75
2023/10/17 06:35:44;;;;;;;7.05;1.95;;;;;;;;;;4971764;28;89373;-75
2023/10/17 06:38:15;;;;;;;4.57;1.80;;;;;;;;;;4970233;28;88113;-74
2023/10/17 06:40:45;;;;;;;4.63;1.80;;;;;;;;;;4971091;28;88704;-76
2023/10/17 06:43:14;;;;;;;4.07;1.63;;;;;;;;;;4970063;28;89437;-74
2023/10/17 06:45:51;;;;;;;6.18;1.70;;;;;;;;;;4971940;28;88042;-75
2023/10/17 06:48:18;;;;;;;5.28;2.20;;;;;;;;;;4970668;28;88750;-75
2023/10/17 06:53:47;;;;;;;5.78;1.50;;;;;;;;;;5002148;28;88682;-76
2023/10/17 06:56:15;;;;;;;4.93;1.73;;;;;;;;;;4972371;28;88807;-76
2023/10/17 06:58:42;;;;;;;3.58;1.50;;;;;;;;;;4970677;28;88215;-76
2023/10/17 07:01:19;;;;;;;5.75;1.60;;;;;;;;;;4967004;28;88404;-75
2023/10/17 07:03:47;;;;;;;4.50;1.50;;;;;;;;;;4966061;28;89517;-76
2023/10/17 07:06:14;;;;;;;3.13;1.40;;;;;;;;;;4967184;28;88721;-76
2023/10/17 07:08:42;;;;;;;4.65;1.40;;;;;;;;;;4965329;28;89831;-77
2023/10/17 07:14:10;;;;;;;3.40;1.48;;;;;;;;;;4970755;28;88622;-76
2023/10/17 07:24:34;;;;;;;4.38;1.40;;;;;;;;;;4969515;28;94005;-76
2023/10/17 07:27:02;;;;;;;3.70;1.25;;;;;;;;;;4970117;28;87465;-77
2023/10/17 07:29:33;;;;;;;4.40;1.33;;;;;;;;;;4969589;28;88384;-76
2023/10/17 07:32:09;;;;;;;3.50;1.25;;;;;;;;;;4969030;28;88492;-76
2023/10/17 07:34:36;;;;;;;2.72;1.30;;;;;;;;;;4969538;28;88780;-76
2023/10/17 07:37:48;;;;;;;3.47;1.30;;;;;;;;;;4970672;28;89233;-76
2023/10/17 07:42:40;;;;;;;3.70;1.20;;;;;;;;;;4969476;28;92914;-76
2023/10/17 07:45:14;;;;;;;;;;;;;;;;;;4970079;28;88961;-76
2023/10/17 07:47:42;;;;;;;2.97;1.10;;;;;;;;;;4970809;28;88337;-77
2023/10/17 07:50:15;;;;;;;2.42;1.17;;;;;;;;;;4974087;28;88591;-77
2023/10/17 07:52:50;;;;;;;2.75;1.25;;;;;;;;;;4972998;28;88514;-77
2023/10/17 07:55:34;;;;;;;3.05;1.23;;;;;;;;;;4970029;28;88143;-77
2023/10/17 07:58:06;;;;;;;4.00;1.42;;;;;;;;;;4968104;28;88660;-78
2023/10/17 08:00:33;;;;;;;5.65;1.27;;;;;;;;;;4969135;28;89122;-77
2023/10/17 08:03:07;;;;;;;2.40;1.08;;;;;;;;;;4968412;28;89045;-77
2023/10/17 08:05:37;;;;;;;3.03;1.10;;;;;;;;;;4971163;28;88769;-77
2023/10/17 08:08:08;;;;;;;2.30;1.10;;;;;;;;;;4973028;28;88068;-77
2023/10/17 08:10:39;;;;;;;3.13;1.20;;;;;;;;;;4973497;28;88543;-77
2023/10/17 08:13:09;;;;;;;1.98;1.00;;;;;;;;;;4972516;28;88787;-77
2023/10/17 08:15:38;;;;;;;3.97;1.38;;;;;;;;;;4973699;28;90560;-77
2023/10/17 08:18:14;;;;;;;4.43;1.30;;;;;;;;;;4971356;28;88493;-77
2023/10/17 08:20:45;;;;;;;3.25;1.20;;;;;;;;;;4973157;28;88321;-77
2023/10/17 08:23:12;;;;;;;2.53;1.15;;;;;;;;;;4987320;28;91118;-77
2023/10/17 08:25:54;;;;;;;2.38;1.10;;;;;;;;;;4971510;28;88876;-77
2023/10/17 08:33:52;;;;;;;2.03;1.10;;;;;;;;;;4973450;28;89194;-78
2023/10/17 08:36:23;;;;;;;2.15;1.02;;;;;;;;;;4972425;28;88489;-77
2023/10/17 08:38:54;;;;;;;4.28;1.10;;;;;;;;;;4976381;28;88589;-77
2023/10/17 08:41:23;;;;;;;3.90;1.00;;;;;;;;;;4970855;28;88176;-77
2023/10/17 08:43:50;;;;;;;3.55;1.08;;;;;;;;;;4973490;28;88948;-78
2023/10/17 08:46:17;;;;;;;2.20;0.90;;;;;;;;;;4971489;28;89253;-77
2023/10/17 08:48:44;;;;;;;3.58;1.05;;;;;;;;;;4973810;28;88244;-78
2023/10/17 08:51:12;;;;;;;;;;;;;;;;;;4972485;28;90303;-78
2023/10/17 08:53:54;;;;;;;3.40;1.20;;;;;;;;;;4974613;28;88998;-78
2023/10/17 08:56:21;;;;;;;3.60;1.10;;;;;;;;;;4971593;28;88236;-78
2023/10/17 08:58:48;;;;;;;2.92;1.20;;;;;;;;;;4975321;28;88406;-78
2023/10/17 09:01:18;;;;;;;2.47;1.10;;;;;;;;;;4963716;28;88608;-78
2023/10/17 09:03:46;;;;;;;4.00;1.20;;;;;;;;;;4972590;28;88401;-78
2023/10/17 09:06:37;;;;;;;3.35;1.00;;;;;;;;;;4971240;28;88890;-76
2023/10/17 09:09:20;;;;;;;3.22;1.00;;;;;;;;;;4973068;28;87503;-76
2023/10/17 09:12:01;;;;;;;2.55;0.93;;;;;;;;;;4970198;28;90544;-76
2023/10/17 09:14:35;;;;;;;2.63;1.13;;;;;;;;;;4971898;28;93012;-76
2023/10/17 09:17:28;;;;;;;3.42;0.90;;;;;;;;;;4970627;28;89014;-78
2023/10/17 09:19:57;;;;;;;2.47;0.98;;;;;;;;;;4970261;28;89099;-78
2023/10/17 09:22:23;;;;;;;1.77;1.00;;;;;;;;;;4974303;28;93284;-76
2023/10/17 09:24:50;;;;;;;2.00;0.93;;;;;;;;;;4970407;28;91551;-76
2023/10/17 09:27:17;;;;;;;;;;;;;;;;;;4971977;28;89204;-75
2023/10/17 09:29:45;;;;;;;2.25;0.90;;;;;;;;;;4962283;28;109114;-75
2023/10/17 09:32:11;;;;;;;2.20;0.90;;;;;;;;;;4968387;28;88686;-75
2023/10/17 09:34:40;;;;;;;4.65;1.02;;;;;;;;;;4970842;28;90912;-75
2023/10/17 09:37:12;;;;;;;1.80;0.90;;;;;;;;;;4970183;28;88225;-76
2023/10/17 09:39:46;;;;;;;2.28;0.95;;;;;;;;;;4970940;28;89508;-77
2023/10/17 09:42:13;;;;;;;3.42;1.10;;;;;;;;;;4970238;28;89268;-76
2023/10/17 09:44:40;;;;;;;2.90;1.00;;;;;;;;;;4975105;28;88099;-76
2023/10/17 09:47:08;;;;;;;5.43;0.85;;;;;;;;;;4968268;28;90711;-76
2023/10/17 09:49:44;;;;;;;4.53;1.00;;;;;;;;;;4974867;28;88153;-76
2023/10/17 09:52:14;;;;;;;2.47;0.90;;;;;;;;;;4969053;28;90933;-76
2023/10/17 09:54:41;;;;;;;2.42;1.00;;;;;;;;;;4970614;28;88795;-77
2023/10/17 09:57:13;;;;;;;4.55;0.98;;;;;;;;;;4970972;28;88681;-76
2023/10/17 09:59:41;;;;;;;1.45;0.73;;;;;;;;;;4972083;28;89167;-76
2023/10/17 10:02:09;;;;;;;3.95;0.77;;;;;;;;;;4968138;28;88956;-77
2023/10/17 10:04:38;;;;;;;3.30;1.02;;;;;;;;;;4970687;28;88325;-77
2023/10/17 10:07:23;;;;;;;3.75;0.93;;;;;;;;;;4973104;28;89170;-75
2023/10/17 10:09:50;;;;;;;1.73;0.90;;;;;;;;;;4971459;28;88516;-79
2023/10/17 10:12:17;;;;;;;1.80;0.73;;;;;;;;;;4970781;28;88192;-76
2023/10/17 10:14:44;;;;;;;2.88;0.80;;;;;;;;;;4971687;28;89189;-76
2023/10/17 10:17:13;;;;;;;1.67;0.73;;;;;;;;;;4971193;28;88100;-76
2023/10/17 10:19:40;;;;;;;1.90;0.90;;;;;;;;;;4971165;28;88333;-76
2023/10/17 10:22:07;;;;;;;3.40;0.80;;;;;;;;;;4968461;28;88620;-78
2023/10/17 10:24:36;;;;;;;2.40;0.70;;;;;;;;;;4971164;28;88532;-78
2023/10/17 10:27:14;;;;;;;3.60;0.95;;;;;;;;;;4969178;28;88588;-76
2023/10/17 10:29:41;;;;;;;2.88;0.80;;;;;;;;;;4965311;28;88774;-76
2023/10/17 10:32:25;;;;;;;1.90;0.70;;;;;;;;;;4960085;28;89477;-76
2023/10/17 10:34:52;;;;;;;2.70;0.90;;;;;;;;;;4957498;28;89138;-79
2023/10/17 10:37:20;;;;;;;1.90;0.90;;;;;;;;;;4953195;28;89126;-78
2023/10/17 10:40:11;;;;;;;1.70;0.77;;;;;;;;;;4965883;28;89144;-76
2023/10/17 10:42:45;;;;;;;1.38;0.70;;;;;;;;;;4970403;28;94199;-76
2023/10/17 10:45:29;;;;;;;3.22;0.90;;;;;;;;;;4968762;28;89875;-76
2023/10/17 10:47:59;;;;;;;1.17;0.70;;;;;;;;;;4970542;28;89517;-76
2023/10/17 10:50:26;;;;;;;1.27;0.70;;;;;;;;;;4971054;28;93253;-76
2023/10/17 10:52:52;;;;;;;;;;;;;;;;;;4974186;28;88255;-77
2023/10/17 10:55:25;;;;;;;2.38;0.80;;;;;;;;;;4972086;28;97234;-77
2023/10/17 10:57:52;;;;;;;2.55;0.82;;;;;;;;;;4970444;28;88847;-77
2023/10/17 11:00:19;;;;;;;1.58;0.70;;;;;;;;;;4970904;28;89162;-77
2023/10/17 11:02:46;;;;;;;2.47;0.70;;;;;;;;;;4970308;28;88912;-77
2023/10/17 11:05:14;;;;;;;2.08;0.70;;;;;;;;;;4958107;28;88238;-77
2023/10/17 11:07:41;;;;;;;3.65;0.73;;;;;;;;;;4971266;28;88518;-76
2023/10/17 11:10:10;;;;;;;2.63;0.80;;;;;;;;;;4968089;28;88841;-76
2023/10/17 11:12:38;;;;;;;2.30;0.80;;;;;;;;;;4973066;28;88071;-76
2023/10/17 11:15:14;;;;;;;4.97;1.00;;;;;;;;;;4971075;28;88314;-77
2023/10/17 11:17:42;;;;;;;3.85;0.90;;;;;;;;;;4969042;28;88321;-76
2023/10/17 11:20:14;;;;;;;;;;;;;;;;;;4969974;28;88425;-76
2023/10/17 11:22:42;;;;;;;2.35;0.90;;;;;;;;;;4964261;28;90458;-76
2023/10/17 11:25:13;;;;;;;4.00;0.85;;;;;;;;;;4970758;28;88218;-76
2023/10/17 11:30:42;;;;;;;3.90;0.82;;;;;;;;;;4973579;28;93883;-76
2023/10/17 11:33:16;;;;;;;6.20;1.20;;;;;;;;;;4971610;28;88391;-76
2023/10/17 11:35:47;;;;;;;2.55;0.70;;;;;;;;;;4972921;28;88532;-75
2023/10/17 11:38:43;;;;;;;4.05;0.80;;;;;;;;;;4969940;28;88409;-76
2023/10/17 11:41:11;;;;;;;;;;;;;;;;;;4974514;28;88425;-76
2023/10/17 11:43:50;;;;;;;3.53;0.80;;;;;;;;;;4989594;28;114121;-76
2023/10/17 11:46:18;;;;;;;;;;;;;;;;;;4973588;27;88523;-76
2023/10/17 11:48:44;;;;;;;3.22;0.90;;;;;;;;;;4970896;28;89046;-76
2023/10/17 11:51:12;;;;;;;2.05;0.60;;;;;;;;;;4964592;28;88859;-76
2023/10/17 11:53:58;;;;;;;2.10;0.80;;;;;;;;;;4973927;28;88431;-76
2023/10/17 11:56:26;;;;;;;4.25;0.90;;;;;;;;;;4973246;28;92956;-76
2023/10/17 11:58:53;;;;;;;2.95;0.82;;;;;;;;;;4976734;28;89554;-77
2023/10/17 12:01:19;;;;;;;2.25;0.57;;;;;;;;;;4964753;28;88386;-76
2023/10/17 12:03:50;;;;;;;1.40;0.73;;;;;;;;;;4974813;28;89820;-77
2023/10/17 12:06:16;;;;;;;2.15;0.80;;;;;;;;;;4975996;28;87658;-77
2023/10/17 12:08:43;;;;;;;1.33;0.70;;;;;;;;;;4963710;28;88210;-76
2023/10/17 12:11:10;;;;;;;1.48;0.77;;;;;;;;;;4978851;28;88107;-76
2023/10/17 12:13:37;;;;;;;0.95;0.70;;;;;;;;;;4961033;28;89203;-76
2023/10/17 12:16:08;;;;;;;1.55;0.63;;;;;;;;;;4976612;28;89215;-77
2023/10/17 12:18:35;;;;;;;2.40;0.80;;;;;;;;;;5010162;28;88628;-77
2023/10/17 12:21:04;;;;;;;1.48;0.80;;;;;;;;;;4978705;28;88097;-77
2023/10/17 12:23:31;;;;;;;1.63;0.70;;;;;;;;;;4975324;28;88867;-78
2023/10/17 12:26:33;;;;;;;2.75;0.80;;;;;;;;;;4976591;28;88341;-78
2023/10/17 12:28:54;;;;;;;1.33;0.60;;;;;;;;;;4972178;28;93399;-78
2023/10/17 12:31:23;;;;;;;3.42;0.80;;;;;;;;;;4959494;28;95429;-78
2023/10/17 12:33:53;;;;;;;1.77;0.70;;;;;;;;;;4975418;28;88065;-78
2023/10/17 12:36:22;;;;;;;2.20;0.60;;;;;;;;;;4973271;28;88530;-78
2023/10/17 12:38:49;;;;;;;2.00;0.70;;;;;;;;;;4973010;28;89518;-78
2023/10/17 12:41:15;;;;;;;1.40;0.80;;;;;;;;;;4973217;28;90163;-78
2023/10/17 12:43:42;;;;;;;1.60;0.60;;;;;;;;;;4972171;28;88437;-78
2023/10/17 12:46:10;;;;;;;3.10;0.65;;;;;;;;;;4963116;28;88518;-77
2023/10/17 12:48:36;;;;;;;2.05;0.63;;;;;;;;;;4973205;28;89415;-78
2023/10/17 12:51:11;;;;;;;1.35;0.70;;;;;;;;;;4972327;28;94654;-78
2023/10/17 12:53:38;;;;;;;1.83;0.80;;;;;;;;;;4973603;28;88091;-78
2023/10/17 12:56:06;;;;;;;2.40;0.73;;;;;;;;;;4967643;28;88534;-78
2023/10/17 12:58:32;;;;;;;3.30;0.90;;;;;;;;;;4972505;28;88909;-78
2023/10/17 13:00:59;;;;;;;3.33;0.75;;;;;;;;;;4987811;28;90303;-78
2023/10/17 13:03:27;;;;;;;2.22;0.80;;;;;;;;;;4971772;28;88647;-78
2023/10/17 13:05:54;;;;;;;1.88;0.80;;;;;;;;;;4974786;28;88732;-78
2023/10/17 13:08:21;;;;;;;3.47;0.77;;;;;;;;;;4972257;28;88444;-78
2023/10/17 13:10:50;;;;;;;;;;;;;;;;;;4971507;28;88672;-78
2023/10/17 13:13:17;;;;;;;3.75;0.80;;;;;;;;;;4974508;28;88787;-78
2023/10/17 13:15:43;;;;;;;2.42;0.80;;;;;;;;;;4973496;28;91957;-78
2023/10/17 13:18:12;;;;;;;1.85;0.57;;;;;;;;;;4978711;28;90694;-78
2023/10/17 13:20:42;;;;;;;2.25;0.50;;;;;;;;;;4973557;28;87645;-78
2023/10/17 13:23:31;;;;;;;0.90;0.60;;;;;;;;;;4972419;28;88334;-78
2023/10/17 13:25:58;;;;;;;2.40;0.60;;;;;;;;;;4967229;28;89315;-78
2023/10/17 13:28:25;;;;;;;3.05;0.80;;;;;;;;;;4975249;28;91943;-79
2023/10/17 13:30:51;;;;;;;1.70;0.70;;;;;;;;;;4962379;28;88087;-79
2023/10/17 13:33:21;;;;;;;2.65;0.80;;;;;;;;;;4972029;28;88251;-78
2023/10/17 13:35:48;;;;;;;2.45;0.70;;;;;;;;;;4971009;28;88450;-79
2023/10/17 13:38:16;;;;;;;2.45;0.70;;;;;;;;;;4972492;28;89998;-78
2023/10/17 13:40:42;;;;;;;4.35;0.90;;;;;;;;;;4972769;28;88100;-79
2023/10/17 13:43:11;;;;;;;2.10;0.70;;;;;;;;;;4973064;28;88950;-79
2023/10/17 13:45:41;;;;;;;1.67;0.70;;;;;;;;;;4972793;28;87460;-78
2023/10/17 13:48:08;;;;;;;1.98;0.60;;;;;;;;;;4975306;28;88662;-78
2023/10/17 13:50:36;;;;;;;0.82;0.70;;;;;;;;;;4972819;28;88585;-79
2023/10/17 13:53:10;;;;;;;2.22;0.75;;;;;;;;;;4965776;28;88859;-79
2023/10/17 13:55:38;;;;;;;1.27;0.63;;;;;;;;;;4974869;28;89120;-78
2023/10/17 13:58:05;;;;;;;1.25;0.63;;;;;;;;;;4970972;28;88753;-78
2023/10/17 14:00:44;;;;;;;2.20;0.73;;;;;;;;;;4971520;28;88610;-78
2023/10/17 14:03:14;;;;;;;1.10;0.77;;;;;;;;;;4970000;28;88160;-78
2023/10/17 14:05:42;;;;;;;1.90;0.70;;;;;;;;;;4970209;28;88069;-78
2023/10/17 14:08:09;;;;;;;1.60;0.57;;;;;;;;;;4971435;28;88103;-79
2023/10/17 14:10:37;;;;;;;;;;;;;;;;;;4977089;28;89503;-79
2023/10/17 14:13:08;;;;;;;3.28;0.80;;;;;;;;;;4972664;28;103486;-79
2023/10/17 14:15:35;;;;;;;1.52;0.80;;;;;;;;;;4971788;28;90189;-79
2023/10/17 14:18:09;;;;;;;;;;;;;;;;;;4970929;28;89297;-79
2023/10/17 14:20:39;;;;;;;1.05;0.57;;;;;;;;;;4970932;28;88722;-78
2023/10/17 14:23:11;;;;;;;2.13;0.60;;;;;;;;;;4971797;28;89037;-78
2023/10/17 14:28:25;;;;;;;2.60;0.70;;;;;;;;;;4973634;28;88419;-79
2023/10/17 14:30:51;;;;;;;2.08;0.70;;;;;;;;;;4963507;28;88528;-79
2023/10/17 14:33:19;;;;;;;1.33;0.70;;;;;;;;;;4974875;28;88510;-78
2023/10/17 14:35:48;;;;;;;1.15;0.70;;;;;;;;;;4971999;28;88352;-78
2023/10/17 14:38:16;;;;;;;1.67;0.80;;;;;;;;;;4971198;28;88584;-78
2023/10/17 14:40:43;;;;;;;1.05;0.70;;;;;;;;;;4964123;28;88077;-78
2023/10/17 14:43:12;;;;;;;2.33;0.80;;;;;;;;;;4971559;28;88933;-79
2023/10/17 14:45:39;;;;;;;1.02;0.70;;;;;;;;;;4974918;28;88923;-79
2023/10/17 14:48:07;;;;;;;1.60;0.70;;;;;;;;;;4971028;28;88519;-79
2023/10/17 14:50:34;;;;;;;1.65;0.60;;;;;;;;;;4972262;28;88718;-79
2023/10/17 14:53:02;;;;;;;1.02;0.60;;;;;;;;;;4971461;28;88519;-79
2023/10/17 14:55:28;;;;;;;1.88;0.65;;;;;;;;;;4973565;28;88476;-79
2023/10/17 14:57:55;;;;;;;2.58;0.80;;;;;;;;;;4971732;28;88252;-79
2023/10/17 15:00:22;;;;;;;1.02;0.60;;;;;;;;;;4971513;28;88489;-79
2023/10/17 15:02:50;;;;;;;2.65;0.82;;;;;;;;;;4971069;28;88149;-79
2023/10/17 15:05:16;;;;;;;1.83;0.80;;;;;;;;;;4971055;28;88811;-79
2023/10/17 15:07:44;;;;;;;2.00;0.70;;;;;;;;;;4968802;28;89504;-79
2023/10/17 15:10:11;;;;;;;1.85;0.70;;;;;;;;;;4969304;28;90645;-79
2023/10/17 15:12:39;;;;;;;1.95;0.75;;;;;;;;;;4969372;28;88652;-79
2023/10/17 15:15:10;;;;;;;1.85;0.80;;;;;;;;;;4969740;28;88503;-79
2023/10/17 15:17:38;;;;;;;1.52;0.70;;;;;;;;;;4972579;28;88408;-78
2023/10/17 15:20:06;;;;;;;1.38;0.82;;;;;;;;;;4967728;28;88853;-78
2023/10/17 15:22:33;;;;;;;2.00;0.80;;;;;;;;;;4970195;28;90119;-79
2023/10/17 15:24:59;;;;;;;2.55;0.80;;;;;;;;;;4972021;28;87993;-79
2023/10/17 15:27:26;;;;;;;1.92;0.70;;;;;;;;;;4970092;28;88426;-78
2023/10/17 15:29:53;;;;;;;1.13;0.82;;;;;;;;;;4974336;28;89421;-79
2023/10/17 15:32:19;;;;;;;1.40;0.80;;;;;;;;;;4970159;28;89541;-79
2023/10/17 15:34:48;;;;;;;1.80;0.77;;;;;;;;;;4971308;28;88486;-79
2023/10/17 15:37:17;;;;;;;2.80;0.95;;;;;;;;;;4974315;28;88559;-78
2023/10/17 15:39:44;;;;;;;1.38;0.75;;;;;;;;;;4971812;28;88014;-79
2023/10/17 15:42:10;;;;;;;1.92;1.00;;;;;;;;;;4969817;28;88185;-79
2023/10/17 15:44:37;;;;;;;1.08;0.80;;;;;;;;;;4971820;28;88833;-78
2023/10/17 15:47:04;;;;;;;1.92;0.88;;;;;;;;;;4971086;28;88493;-77
2023/10/17 15:49:30;;;;;;;1.30;0.90;;;;;;;;;;4970518;28;88435;-78
2023/10/17 15:51:58;;;;;;;1.92;0.90;;;;;;;;;;4970946;28;88731;-77
2023/10/17 15:54:25;;;;;;;1.08;0.70;;;;;;;;;;4971338;28;92109;-78
2023/10/17 15:56:54;;;;;;;2.45;0.90;;;;;;;;;;4970569;28;88808;-78
2023/10/17 15:59:21;;;;;;;2.28;0.90;;;;;;;;;;4979476;28;89858;-78
2023/10/17 16:01:47;;;;;;;2.50;0.93;;;;;;;;;;4970347;28;89859;-78
2023/10/17 16:04:14;;;;;;;3.35;1.00;;;;;;;;;;4969606;28;88887;-78
2023/10/17 16:06:42;;;;;;;2.70;1.00;;;;;;;;;;4980465;28;89444;-78
2023/10/17 16:09:15;;;;;;;4.30;1.20;;;;;;;;;;4970544;28;89176;-77
2023/10/17 16:11:45;;;;;;;3.55;1.02;;;;;;;;;;4970292;28;89227;-78
2023/10/17 16:14:12;;;;;;;2.50;1.20;;;;;;;;;;4976374;28;88890;-78
2023/10/17 16:16:39;;;;;;;3.25;1.02;;;;;;;;;;4972091;28;94876;-77
2023/10/17 16:19:06;;;;;;;2.80;1.20;;;;;;;;;;4969726;28;88267;-77
2023/10/17 16:21:34;;;;;;;;;;;;;;;;;;4972355;28;89015;-77
2023/10/17 16:24:02;;;;;;;2.78;1.10;;;;;;;;;;4970088;28;110428;-77
2023/10/17 16:26:28;;;;;;;1.95;1.00;;;;;;;;;;4975972;28;88042;-77
2023/10/17 16:28:57;;;;;;;2.78;1.02;;;;;;;;;;4971846;28;88462;-77
2023/10/17 16:31:25;;;;;;;2.90;1.20;;;;;;;;;;4972816;28;89224;-77
2023/10/17 16:33:52;;;;;;;3.55;1.27;;;;;;;;;;4972640;28;88440;-77
2023/10/17 16:36:19;;;;;;;3.28;0.95;;;;;;;;;;4972437;28;88028;-77
2023/10/17 16:38:46;;;;;;;2.47;1.20;;;;;;;;;;4972482;28;90825;-77
2023/10/17 16:41:13;;;;;;;3.55;1.10;;;;;;;;;;4973102;28;88022;-78
2023/10/17 16:43:41;;;;;;;2.40;1.10;;;;;;;;;;4976039;28;88376;-78
2023/10/17 16:46:10;;;;;;;4.70;1.20;;;;;;;;;;4975794;28;89061;-78
2023/10/17 16:48:37;;;;;;;2.60;1.10;;;;;;;;;;4973057;28;89061;-78
2023/10/17 16:51:04;;;;;;;3.00;1.20;;;;;;;;;;4971835;28;88798;-78
2023/10/17 16:53:31;;;;;;;;;;;;;;;;;;4970493;28;88035;-78
2023/10/17 16:55:57;;;;;;;2.17;1.10;;;;;;;;;;4968738;28;88988;-77
2023/10/17 16:58:24;;;;;;;2.42;1.10;;;;;;;;;;4977884;28;90972;-77
2023/10/17 17:00:51;;;;;;;2.38;1.10;;;;;;;;;;4990002;28;88990;-77
2023/10/17 17:03:19;;;;;;;3.63;1.10;;;;;;;;;;4974440;28;89041;-78
2023/10/17 17:05:47;;;;;;;2.50;1.17;;;;;;;;;;4975846;28;89619;-78
2023/10/17 17:08:13;;;;;;;3.22;1.00;;;;;;;;;;4971272;28;90226;-77
2023/10/17 17:10:41;;;;;;;3.05;1.10;;;;;;;;;;4972799;28;89418;-78
2023/10/17 17:13:11;;;;;;;1.80;1.00;;;;;;;;;;4973624;28;88028;-78
2023/10/17 17:15:41;;;;;;;2.55;1.05;;;;;;;;;;4971912;28;91436;-77
2023/10/17 17:18:11;;;;;;;2.78;1.20;;;;;;;;;;4972621;28;88618;-77